Welcome to Northern Hawkes Bay. New Zealand.
PWS Header
      nz Flag



Hit Counter


W3C Valid W3C Valid logo


    Wairoa

Select any of the Stations below to visit their websites.










Historic Data from Weather Underground
Select the location of interest below. Wairoa is the default. Please have patience, this Data is slow to load in.
Northern Hawkes Bay Historical Data
Daily Summary for January 11, 2017 Units:  English    Metric   Both
« Previous Day
Next Day »
Daily Weekly Monthly Yearly Custom
  High: Low: Average:
Temperature: 90.3 °F 60.3 °F 75.2 °F
Dew Point: 61.7 °F 46.8 °F 55.8 °F
Humidity: 95% 24% 57%
Wind Speed: 9.8mph 0mph 3.5mph
Wind Gust: 14.5mph - -
Wind- - SW
Pressure: 29.9 in 29.8 in -
Precipitation: 0 in    
Historical Graphs
 
 
Tabular Data for January 11, 2017
Time Temperature Dew Point Pressure Wind Wind Speed Wind Gust Humidity Rainfall Rate (Hourly) solar
00:00 64 °F 61.3 °F 29.9 in Calm   1.6 mph 91% 0 in 0 W/m2
00:05 63.7 °F 61 °F 29.9 in Calm   1.6 mph 91% 0 in 0 W/m2
00:10 63.7 °F 61 °F 29.9 in Calm   1.6 mph 91% 0 in 0 W/m2
00:15 63.3 °F 60.6 °F 29.9 in North 2.2 mph 3.1 mph 91% 0 in 0 W/m2
00:20 63.1 °F 60.4 °F 29.9 in Calm   3.1 mph 91% 0 in 0 W/m2
00:25 63 °F 60.3 °F 29.9 in Calm   3.1 mph 91% 0 in 0 W/m2
00:30 62.8 °F 60.1 °F 29.9 in Calm   1.6 mph 91% 0 in 0 W/m2
00:35 62.6 °F 60.1 °F 29.9 in North 0.7 mph 1.6 mph 91% 0 in 0 W/m2
00:41 62.6 °F 60.1 °F 29.9 in North 1.6 mph 3.1 mph 91% 0 in 0 W/m2
00:46 62.4 °F 60.1 °F 29.9 in North 1.6 mph 3.1 mph 92% 0 in 0 W/m2
00:51 62.2 °F 59.9 °F 29.9 in Calm   3.1 mph 92% 0 in 0 W/m2
00:56 62.1 °F 59.7 °F 29.9 in North 1.6 mph 3.1 mph 92% 0 in 0 W/m2
01:01 61.9 °F 59.5 °F 29.9 in Calm   2.2 mph 92% 0 in 0 W/m2
01:06 61.7 °F 59.4 °F 29.9 in Calm   2.2 mph 92% 0 in 0 W/m2
01:11 61.7 °F 59.4 °F 29.9 in North 1.6 mph 2.2 mph 92% 0 in 0 W/m2
01:16 61.5 °F 59.2 °F 29.9 in North 1.6 mph 3.1 mph 92% 0 in 0 W/m2
01:21 61.3 °F 59 °F 29.9 in North 1.6 mph 3.1 mph 92% 0 in 0 W/m2
01:26 61.2 °F 59.2 °F 29.9 in North 1.6 mph 3.1 mph 93% 0 in 0 W/m2
01:31 61 °F 59 °F 29.9 in North 0.7 mph 3.1 mph 93% 0 in 0 W/m2
01:36 60.8 °F 58.8 °F 29.9 in North 1.6 mph 3.1 mph 93% 0 in 0 W/m2
01:41 60.6 °F 58.8 °F 29.9 in North 1.6 mph 3.1 mph 94% 0 in 0 W/m2
01:46 60.6 °F 58.8 °F 29.9 in North 2.2 mph 3.8 mph 94% 0 in 0 W/m2
01:51 60.6 °F 58.8 °F 29.9 in North 0.7 mph 3.8 mph 94% 0 in 0 W/m2
01:56 60.4 °F 58.6 °F 29.9 in North 1.6 mph 3.1 mph 94% 0 in 0 W/m2
02:01 60.3 °F 58.5 °F 29.9 in NNW 1.6 mph 4.5 mph 94% 0 in 0 W/m2
02:06 60.3 °F 58.5 °F 29.9 in NNW 2.2 mph 4.5 mph 94% 0 in 0 W/m2
02:11 60.3 °F 58.8 °F 29.9 in North 1.6 mph 4.5 mph 95% 0 in 0 W/m2
02:16 60.6 °F 59.2 °F 29.9 in North 3.8 mph 5.4 mph 95% 0 in 0 W/m2
02:21 61.2 °F 59.4 °F 29.9 in NNW 3.8 mph 5.4 mph 94% 0 in 0 W/m2
02:26 61.3 °F 59.5 °F 29.9 in NNW 3.1 mph 5.4 mph 94% 0 in 0 W/m2
02:31 61.3 °F 59.4 °F 29.9 in NNW 3.8 mph 7.6 mph 93% 0 in 0 W/m2
02:36 61.5 °F 59.2 °F 29.9 in NNW 1.6 mph 7.6 mph 92% 0 in 0 W/m2
02:41 61.5 °F 59.2 °F 29.9 in NNW 2.2 mph 6 mph 92% 0 in 0 W/m2
02:46 61.5 °F 59.2 °F 29.9 in NW 1.6 mph 3.1 mph 92% 0 in 0 W/m2
02:51 61.3 °F 58.6 °F 29.9 in NW 0.7 mph 3.1 mph 91% 0 in 0 W/m2
02:56 61 °F 58.3 °F 29.9 in Calm   3.1 mph 91% 0 in 0 W/m2
03:01 60.8 °F 58.5 °F 29.9 in Calm   3.1 mph 92% 0 in 0 W/m2
03:06 60.6 °F 58.6 °F 29.9 in NW 0.7 mph 1.6 mph 93% 0 in 0 W/m2
03:11 60.6 °F 58.6 °F 29.9 in NNW 2.2 mph 4.5 mph 93% 0 in 0 W/m2
03:16 60.6 °F 58.6 °F 29.9 in NNW 3.1 mph 6.9 mph 93% 0 in 0 W/m2
03:21 60.6 °F 58.8 °F 29.9 in NNW 2.2 mph 6.9 mph 94% 0 in 0 W/m2
03:26 60.8 °F 58.8 °F 29.9 in NNW 3.8 mph 6 mph 93% 0 in 0 W/m2
03:31 60.8 °F 58.8 °F 29.9 in NNW 4.5 mph 6 mph 93% 0 in 0 W/m2
03:36 61 °F 58.6 °F 29.9 in NNW 2.2 mph 6 mph 92% 0 in 0 W/m2
03:41 61 °F 58.6 °F 29.9 in NNW 4.5 mph 6 mph 92% 0 in 0 W/m2
03:46 61.2 °F 58.8 °F 29.9 in NNW 2.2 mph 5.4 mph 92% 0 in 0 W/m2
03:51 61.2 °F 58.8 °F 29.9 in NNW 3.1 mph 6 mph 92% 0 in 0 W/m2
03:56 61.3 °F 59 °F 29.9 in NNW 3.8 mph 6 mph 92% 0 in 0 W/m2
04:01 61.3 °F 59 °F 29.9 in NNW 3.1 mph 6.9 mph 92% 0 in 0 W/m2
04:06 61.3 °F 59 °F 29.9 in North 3.8 mph 6.9 mph 92% 0 in 0 W/m2
04:11 61.3 °F 59 °F 29.9 in North 1.6 mph 6.9 mph 92% 0 in 0 W/m2
04:16 61.3 °F 58.6 °F 29.9 in North 2.2 mph 6.9 mph 91% 0 in 0 W/m2
04:21 61.5 °F 59.2 °F 29.9 in NNW 3.8 mph 6 mph 92% 0 in 0 W/m2
04:26 61.5 °F 59.2 °F 29.9 in NNW 5.4 mph 6.9 mph 92% 0 in 0 W/m2
04:31 61.9 °F 59.2 °F 29.9 in North 3.8 mph 6.9 mph 91% 0 in 0 W/m2
04:36 61.9 °F 58.8 °F 29.9 in NNW 3.8 mph 6.9 mph 90% 0 in 0 W/m2
04:41 62.1 °F 59.2 °F 29.9 in NNW 4.5 mph 6 mph 90% 0 in 0 W/m2
04:46 61.7 °F 58.8 °F 29.9 in NNW 3.1 mph 6.9 mph 90% 0 in 0 W/m2
04:51 61.5 °F 58.8 °F 29.9 in NNW 3.8 mph 6.9 mph 91% 0 in 0 W/m2
04:56 61.3 °F 58.6 °F 29.9 in NNW 5.4 mph 6.9 mph 91% 0 in 0 W/m2
05:01 61.3 °F 58.6 °F 29.9 in NNW 3.1 mph 7.6 mph 91% 0 in 0 W/m2
05:06 61.3 °F 58.6 °F 29.9 in NNW 2.2 mph 7.6 mph 91% 0 in 0 W/m2
05:11 61.2 °F 58.5 °F 29.9 in NNW 3.1 mph 5.4 mph 91% 0 in 0 W/m2
05:16 61 °F 58.3 °F 29.9 in NW 4.5 mph 5.4 mph 91% 0 in 0 W/m2
05:21 61 °F 58.3 °F 29.9 in NW 6 mph 9.2 mph 91% 0 in 0 W/m2
05:26 61 °F 58.3 °F 29.9 in NW 3.8 mph 9.2 mph 91% 0 in 0 W/m2
05:31 61.2 °F 58.5 °F 29.9 in NW 5.4 mph 9.2 mph 91% 0 in 0 W/m2
05:36 61.3 °F 58.5 °F 29.9 in NNW 3.8 mph 8.3 mph 90% 0 in 0 W/m2
05:41 61.5 °F 58.3 °F 29.9 in NNW 3.8 mph 7.6 mph 89% 0 in 0 W/m2
05:46 61.7 °F 58.1 °F 29.9 in NNW 3.1 mph 6.9 mph 88% 0 in 0 W/m2
05:51 61.7 °F 58.1 °F 29.9 in North 2.2 mph 6 mph 88% 0 in 0 W/m2
05:56 61.5 °F 57.9 °F 29.9 in North 2.2 mph 6 mph 88% 0 in 0 W/m2
06:01 61.5 °F 58.3 °F 29.9 in North 3.8 mph 5.4 mph 89% 0 in 1 W/m2
06:06 61.3 °F 58.1 °F 29.9 in North 3.1 mph 5.4 mph 89% 0 in 2 W/m2
06:11 61.3 °F 58.1 °F 29.9 in North 2.2 mph 5.4 mph 89% 0 in 4 W/m2
06:16 61.3 °F 58.5 °F 29.9 in North 1.6 mph 5.4 mph 90% 0 in 8 W/m2
06:21 61.5 °F 58.6 °F 29.9 in North 1.6 mph 5.4 mph 90% 0 in 12 W/m2
06:26 61.5 °F 58.6 °F 29.9 in North 2.2 mph 5.4 mph 90% 0 in 16 W/m2
06:31 61.7 °F 58.5 °F 29.9 in North 3.1 mph 5.4 mph 89% 0 in 19 W/m2
06:36 61.9 °F 58.6 °F 29.9 in North 2.2 mph 5.4 mph 89% 0 in 21 W/m2
06:41 62.1 °F 58.5 °F 29.9 in North 4.5 mph 6.9 mph 88% 0 in 25 W/m2
06:46 62.2 °F 58.3 °F 29.9 in NNW 3.1 mph 6.9 mph 87% 0 in 27 W/m2
06:51 62.2 °F 58.3 °F 29.9 in NW 3.8 mph 7.6 mph 87% 0 in 27 W/m2
06:56 62.2 °F 58.3 °F 29.9 in NW 3.8 mph 7.6 mph 87% 0 in 31 W/m2
07:01 62.2 °F 58.3 °F 29.9 in NNW 3.1 mph 6 mph 87% 0 in 28 W/m2
07:06 62.2 °F 58.3 °F 29.9 in NNW 3.8 mph 6 mph 87% 0 in 41 W/m2
07:11 62.4 °F 58.5 °F 29.9 in NNW 3.8 mph 5.4 mph 87% 0 in 56 W/m2
07:16 62.6 °F 58.5 °F 29.9 in North 3.8 mph 6 mph 86% 0 in 80 W/m2
07:21 62.8 °F 58.5 °F 29.9 in NNW 5.4 mph 7.6 mph 86% 0 in 112 W/m2
07:26 63.5 °F 58.8 °F 29.9 in NNW 3.1 mph 7.6 mph 85% 0 in 97 W/m2
07:31 64.4 °F 59.7 °F 29.9 in NW 3.1 mph 7.6 mph 85% 0 in 152 W/m2
07:36 65.3 °F 59.4 °F 29.9 in NNW 3.8 mph 7.6 mph 81% 0 in 174 W/m2
07:41 66 °F 59.4 °F 29.9 in North 4.5 mph 7.6 mph 79% 0 in 186 W/m2
07:46 66.7 °F 59 °F 29.9 in North 1.6 mph 7.6 mph 76% 0 in 258 W/m2
07:51 68.9 °F 59.9 °F 29.9 in North 2.2 mph 7.6 mph 73% 0 in 213 W/m2
07:56 70 °F 59.4 °F 29.9 in NNE 3.1 mph 6 mph 69% 0 in 106 W/m2
08:01 70.3 °F 58.5 °F 29.9 in North 2.2 mph 6 mph 66% 0 in 254 W/m2
08:06 70.3 °F 57.9 °F 29.9 in North 3.8 mph 6.9 mph 65% 0 in 267 W/m2
08:11 70.3 °F 58.5 °F 29.9 in North 3.8 mph 6.9 mph 66% 0 in 281 W/m2
08:16 71.2 °F 58.8 °F 29.9 in North 3.8 mph 6.9 mph 65% 0 in 298 W/m2
08:21 71.4 °F 58.3 °F 29.9 in North 3.1 mph 6.9 mph 63% 0 in 312 W/m2
08:26 72.1 °F 58.8 °F 29.9 in NNW 3.1 mph 6.9 mph 63% 0 in 329 W/m2
08:31 72.5 °F 59.2 °F 29.9 in NW 1.6 mph 6.9 mph 63% 0 in 345 W/m2
08:36 73.9 °F 59.7 °F 29.9 in NNW 3.8 mph 5.4 mph 61% 0 in 361 W/m2
08:41 74.1 °F 59.4 °F 29.9 in North 2.2 mph 5.4 mph 60% 0 in 380 W/m2
08:46 74.5 °F 59.2 °F 29.9 in North 4.5 mph 6 mph 59% 0 in 400 W/m2
08:51 74.7 °F 59.9 °F 29.9 in Calm   6 mph 60% 0 in 417 W/m2
08:56 75.6 °F 59.4 °F 29.9 in North 2.2 mph 6 mph 57% 0 in 438 W/m2
09:01 75 °F 59.7 °F 29.9 in NNW 3.8 mph 6.9 mph 59% 0 in 455 W/m2
09:06 74.3 °F 59.2 °F 29.9 in NW 4.5 mph 6.9 mph 59% 0 in 472 W/m2
09:11 74.8 °F 60.1 °F 29.9 in NNW 5.4 mph 8.3 mph 60% 0 in 490 W/m2
09:16 74.7 °F 58.8 °F 29.9 in NW 3.1 mph 8.3 mph 58% 0 in 507 W/m2
09:21 75.2 °F 59 °F 29.9 in NNW 3.1 mph 6.9 mph 57% 0 in 528 W/m2
09:26 76.1 °F 58.3 °F 29.9 in North 2.2 mph 7.6 mph 54% 0 in 552 W/m2
09:31 76.6 °F 58.8 °F 29.9 in North 2.2 mph 7.6 mph 54% 0 in 574 W/m2
09:36 77.7 °F 57.6 °F 29.9 in North 1.6 mph 6 mph 50% 0 in 599 W/m2
09:41 79.5 °F 57 °F 29.9 in NE 3.1 mph 4.5 mph 46% 0 in 624 W/m2
09:46 79.3 °F 56.1 °F 29.9 in ENE 1.6 mph 4.5 mph 45% 0 in 648 W/m2
09:51 80.4 °F 57.2 °F 29.9 in ENE 3.1 mph 4.5 mph 45% 0 in 672 W/m2
09:56 79 °F 55.2 °F 29.9 in North 3.1 mph 6.9 mph 44% 0 in 700 W/m2
10:01 79.2 °F 54.9 °F 29.9 in North 3.1 mph 6.9 mph 43% 0 in 723 W/m2
10:06 80.2 °F 55.8 °F 29.9 in North 1.6 mph 6.9 mph 43% 0 in 742 W/m2
10:11 80.8 °F 54.9 °F 29.9 in NNE 4.5 mph 6.9 mph 41% 0 in 761 W/m2
10:17 80.8 °F 54.9 °F 29.9 in NNE 5.4 mph 9.2 mph 41% 0 in 775 W/m2
10:22 80.4 °F 55.2 °F 29.9 in NNE 5.4 mph 9.2 mph 42% 0 in 767 W/m2
10:27 81.1 °F 55.2 °F 29.9 in North 6.9 mph 8.3 mph 41% 0 in 783 W/m2
10:32 81 °F 54.3 °F 29.9 in NNW 6 mph 8.3 mph 40% 0 in 784 W/m2
10:37 81.1 °F 55.2 °F 29.9 in North 4.5 mph 8.3 mph 41% 0 in 809 W/m2
10:42 82 °F 56.1 °F 29.9 in North 3.1 mph 8.3 mph 41% 0 in 804 W/m2
10:47 82.9 °F 58.3 °F 29.9 in North 5.4 mph 7.6 mph 43% 0 in 833 W/m2
10:52 83.1 °F 57 °F 29.9 in NNW 3.1 mph 7.6 mph 41% 0 in 874 W/m2
10:57 83.5 °F 59.4 °F 29.9 in NNW 5.4 mph 7.6 mph 44% 0 in 908 W/m2
11:02 83.5 °F 57.9 °F 29.9 in North 5.4 mph 13 mph 42% 0 in 854 W/m2
11:07 83.3 °F 57.9 °F 29.9 in NNW 2.2 mph 13 mph 42% 0 in 899 W/m2
11:12 83.5 °F 57.4 °F 29.9 in NNW 2.2 mph 11.4 mph 41% 0 in 926 W/m2
11:17 83.8 °F 57.7 °F 29.9 in NNW 2.2 mph 8.3 mph 41% 0 in 929 W/m2
11:22 84.4 °F 58.3 °F 29.9 in NNW 3.1 mph 7.6 mph 41% 0 in 946 W/m2
11:27 85.1 °F 58.8 °F 29.9 in North 4.5 mph 6.9 mph 41% 0 in 964 W/m2
11:32 85.5 °F 58.5 °F 29.9 in NNE 2.2 mph 7.6 mph 40% 0 in 959 W/m2
11:37 86 °F 56.7 °F 29.9 in NNE 1.6 mph 7.6 mph 37% 0 in 971 W/m2
11:42 86 °F 56.7 °F 29.9 in NNW 6 mph 9.2 mph 37% 0 in 981 W/m2
11:47 85.6 °F 57.9 °F 29.9 in NW 6.9 mph 12.1 mph 39% 0 in 978 W/m2
11:52 86.2 °F 56.8 °F 29.8 in WNW 4.5 mph 12.1 mph 37% 0 in 990 W/m2
11:57 86.2 °F 56.1 °F 29.8 in WSW 6 mph 9.8 mph 36% 0 in 993 W/m2
12:02 86.5 °F 60.1 °F 29.9 in SW 6.9 mph 8.3 mph 41% 0 in 1002 W/m2
12:07 84 °F 61.7 °F 29.8 in SSW 6 mph 9.2 mph 47% 0 in 993 W/m2
12:12 82.8 °F 59.9 °F 29.8 in South 7.6 mph 9.8 mph 46% 0 in 980 W/m2
12:17 82.9 °F 60.1 °F 29.8 in South 6 mph 9.8 mph 46% 0 in 984 W/m2
12:22 83.5 °F 61.2 °F 29.8 in South 6 mph 9.8 mph 47% 0 in 983 W/m2
12:27 82.4 °F 59.5 °F 29.8 in South 6.9 mph 9.2 mph 46% 0 in 983 W/m2
12:33 81.9 °F 57.9 °F 29.8 in South 3.8 mph 9.2 mph 44% 0 in 982 W/m2
12:38 82.9 °F 60.1 °F 29.8 in South 4.5 mph 9.2 mph 46% 0 in 984 W/m2
12:43 83.1 °F 59.5 °F 29.8 in South 6.9 mph 9.2 mph 45% 0 in 986 W/m2
12:47 82.9 °F 60.1 °F 29.8 in SSE 4.5 mph 9.2 mph 46% 0 in 983 W/m2
12:52 82.4 °F 59.5 °F 29.8 in South 3.8 mph 9.2 mph 46% 0 in 977 W/m2
12:57 82.9 °F 59.5 °F 29.8 in South 5.4 mph 9.2 mph 45% 0 in 978 W/m2
13:02 82.8 °F 59.9 °F 29.8 in SSE 6 mph 10.7 mph 46% 0 in 982 W/m2
13:07 81.5 °F 60.1 °F 29.8 in SE 4.5 mph 10.7 mph 48% 0 in 975 W/m2
13:12 81.9 °F 60.3 °F 29.8 in SE 6.9 mph 9.2 mph 48% 0 in 971 W/m2
13:17 81.5 °F 59.4 °F 29.8 in SSE 4.5 mph 9.2 mph 47% 0 in 967 W/m2
13:23 81.9 °F 59.7 °F 29.8 in South 6 mph 10.7 mph 47% 0 in 967 W/m2
13:28 81.7 °F 59.5 °F 29.8 in SSE 6.9 mph 10.7 mph 47% 0 in 962 W/m2
13:33 81 °F 61.2 °F 29.8 in SSE 3.1 mph 10.7 mph 51% 0 in 952 W/m2
13:38 81.3 °F 58.6 °F 29.8 in SE 4.5 mph 11.4 mph 46% 0 in 950 W/m2
13:43 80.6 °F 57.4 °F 29.8 in SSE 4.5 mph 11.4 mph 45% 0 in 945 W/m2
13:48 81.5 °F 57.6 °F 29.8 in SSE 4.5 mph 11.4 mph 44% 0 in 943 W/m2
13:53 82 °F 57.4 °F 29.8 in SSE 6 mph 10.7 mph 43% 0 in 943 W/m2
13:58 81.5 °F 56.8 °F 29.8 in SSE 4.5 mph 13 mph 43% 0 in 933 W/m2
14:03 82 °F 59.4 °F 29.8 in SSE 5.4 mph 13 mph 46% 0 in 930 W/m2
14:08 82.4 °F 59.5 °F 29.8 in SSE 7.6 mph 9.8 mph 46% 0 in 925 W/m2
14:13 81.3 °F 57.9 °F 29.8 in SE 6 mph 13.6 mph 45% 0 in 915 W/m2
14:18 81.1 °F 56.7 °F 29.8 in SSE 5.4 mph 13.6 mph 43% 0 in 909 W/m2
14:23 81.7 °F 57.7 °F 29.8 in SE 5.4 mph 11.4 mph 44% 0 in 897 W/m2
14:28 82.6 °F 59.2 °F 29.8 in SE 4.5 mph 11.4 mph 45% 0 in 895 W/m2
14:33 83.7 °F 57.6 °F 29.8 in SE 4.5 mph 9.8 mph 41% 0 in 896 W/m2
14:38 84 °F 57.7 °F 29.8 in ESE 3.1 mph 9.8 mph 41% 0 in 890 W/m2
14:43 84.2 °F 56.7 °F 29.8 in ESE 5.4 mph 9.8 mph 39% 0 in 880 W/m2
14:48 83.3 °F 57.2 °F 29.8 in ESE 5.4 mph 9.8 mph 41% 0 in 867 W/m2
14:53 84 °F 59.2 °F 29.8 in ESE 3.1 mph 9.8 mph 43% 0 in 862 W/m2
14:58 84.9 °F 55.8 °F 29.8 in ESE 3.8 mph 9.8 mph 37% 0 in 853 W/m2
15:03 85.8 °F 58.1 °F 29.8 in ESE 5.4 mph 9.2 mph 39% 0 in 852 W/m2
15:08 86 °F 55.2 °F 29.8 in ESE 4.5 mph 8.3 mph 35% 0 in 846 W/m2
15:13 86 °F 54.3 °F 29.8 in ESE 6 mph 8.3 mph 34% 0 in 834 W/m2
15:18 85.5 °F 55.6 °F 29.8 in ESE 6.9 mph 13 mph 36% 0 in 821 W/m2
15:23 86 °F 55.2 °F 29.8 in ESE 3.1 mph 13 mph 35% 0 in 814 W/m2
15:28 86.7 °F 55.8 °F 29.8 in East 5.4 mph 9.2 mph 35% 0 in 800 W/m2
15:33 86.7 °F 55.8 °F 29.8 in East 5.4 mph 9.2 mph 35% 0 in 796 W/m2
15:38 86.9 °F 55.9 °F 29.8 in East 2.2 mph 9.2 mph 35% 0 in 779 W/m2
15:43 86.9 °F 55.2 °F 29.8 in ESE 3.8 mph 9.2 mph 34% 0 in 770 W/m2
15:48 87.1 °F 54.5 °F 29.8 in ESE 3.1 mph 7.6 mph 33% 0 in 759 W/m2
15:53 86.7 °F 54.1 °F 29.8 in ESE 3.8 mph 7.6 mph 33% 0 in 747 W/m2
15:58 86.9 °F 54.3 °F 29.8 in ESE 3.1 mph 8.3 mph 33% 0 in 734 W/m2
16:03 87.6 °F 55 °F 29.8 in SE 3.8 mph 8.3 mph 33% 0 in 721 W/m2
16:08 88.7 °F 55 °F 29.8 in SE 3.1 mph 6.9 mph 32% 0 in 715 W/m2
16:13 87.8 °F 53.4 °F 29.8 in ESE 3.1 mph 7.6 mph 31% 0 in 700 W/m2
16:18 87.4 °F 52.3 °F 29.8 in ESE 3.8 mph 8.3 mph 30% 0 in 682 W/m2
16:23 87.6 °F 52.3 °F 29.8 in SE 2.2 mph 8.3 mph 30% 0 in 671 W/m2
16:28 88.2 °F 53.8 °F 29.8 in SSE 3.8 mph 7.6 mph 31% 0 in 661 W/m2
16:33 88.3 °F 54 °F 29.8 in SSE 2.2 mph 6.9 mph 31% 0 in 646 W/m2
16:38 88.9 °F 54.3 °F 29.8 in Calm   6.9 mph 31% 0 in 631 W/m2
16:43 88.9 °F 52.5 °F 29.8 in SE 3.8 mph 7.6 mph 29% 0 in 618 W/m2
16:48 88.2 °F 51.1 °F 29.8 in ESE 3.1 mph 7.6 mph 28% 0 in 601 W/m2
16:53 88.2 °F 51.1 °F 29.8 in ESE 1.6 mph 8.3 mph 28% 0 in 586 W/m2
16:58 89.1 °F 53.6 °F 29.8 in ESE 3.1 mph 8.3 mph 30% 0 in 572 W/m2
17:03 89.6 °F 52.2 °F 29.8 in SE 2.2 mph 7.6 mph 28% 0 in 559 W/m2
17:08 89.4 °F 53.1 °F 29.8 in SE 3.8 mph 7.6 mph 29% 0 in 542 W/m2
17:13 88.7 °F 51.4 °F 29.8 in ESE 3.1 mph 6.9 mph 28% 0 in 526 W/m2
17:18 88.2 °F 50 °F 29.8 in ESE 3.8 mph 6.9 mph 27% 0 in 510 W/m2
17:23 88.7 °F 50.5 °F 29.8 in ESE 3.8 mph 6 mph 27% 0 in 497 W/m2
17:28 89.4 °F 50.2 °F 29.8 in SE 3.1 mph 6.9 mph 26% 0 in 480 W/m2
17:33 89.1 °F 49.8 °F 29.8 in SE 3.1 mph 6.9 mph 26% 0 in 467 W/m2
17:38 88.9 °F 50.5 °F 29.8 in ESE 3.1 mph 6.9 mph 27% 0 in 450 W/m2
17:43 88 °F 50.7 °F 29.8 in ESE 3.8 mph 6.9 mph 28% 0 in 433 W/m2
17:48 88.3 °F 50.2 °F 29.8 in SE 2.2 mph 6.9 mph 27% 0 in 418 W/m2
17:53 89.4 °F 50.2 °F 29.8 in SSE 1.6 mph 6 mph 26% 0 in 404 W/m2
17:58 89.1 °F 49.8 °F 29.8 in SE 3.8 mph 6 mph 26% 0 in 394 W/m2
18:03 89.1 °F 49.8 °F 29.8 in SE 2.2 mph 6 mph 26% 0 in 375 W/m2
18:08 89.1 °F 48.7 °F 29.8 in SE 2.2 mph 6.9 mph 25% 0 in 359 W/m2
18:13 89.8 °F 49.3 °F 29.8 in SE 1.6 mph 6.9 mph 25% 0 in 347 W/m2
18:18 90.3 °F 49.8 °F 29.8 in SE 2.2 mph 6 mph 25% 0 in 331 W/m2
18:23 90.1 °F 48.6 °F 29.8 in SSE 2.2 mph 6 mph 24% 0 in 319 W/m2
18:28 89.4 °F 50.2 °F 29.8 in SSE 2.2 mph 5.4 mph 26% 0 in 305 W/m2
18:33 89.1 °F 49.8 °F 29.8 in South 2.2 mph 5.4 mph 26% 0 in 292 W/m2
18:38 89.4 °F 50.2 °F 29.8 in SSE 2.2 mph 4.5 mph 26% 0 in 277 W/m2
18:43 89.8 °F 50.4 °F 29.8 in SSE 3.1 mph 5.4 mph 26% 0 in 264 W/m2
18:48 89.1 °F 52.7 °F 29.8 in SSE 1.6 mph 5.4 mph 29% 0 in 251 W/m2
18:53 89.6 °F 51.3 °F 29.8 in SSE 1.6 mph 5.4 mph 27% 0 in 238 W/m2
18:58 89.4 °F 52.2 °F 29.8 in SSE 2.2 mph 5.4 mph 28% 0 in 226 W/m2
19:03 88.9 °F 51.6 °F 29.8 in SSE 2.2 mph 5.4 mph 28% 0 in 214 W/m2
19:08 89.1 °F 53.6 °F 29.8 in SSE 3.8 mph 5.4 mph 30% 0 in 202 W/m2
19:13 88.3 °F 54 °F 29.8 in SSE 2.2 mph 5.4 mph 31% 0 in 191 W/m2
19:18 87.4 °F 53.1 °F 29.8 in South 3.1 mph 6 mph 31% 0 in 180 W/m2
19:23 86.2 °F 58.5 °F 29.8 in South 1.6 mph 6 mph 39% 0 in 170 W/m2
19:28 86.9 °F 60.4 °F 29.8 in SSE 1.6 mph 6 mph 41% 0 in 158 W/m2
19:33 86.5 °F 61.3 °F 29.8 in SE 2.2 mph 4.5 mph 43% 0 in 146 W/m2
19:38 86.2 °F 60.4 °F 29.8 in Calm   4.5 mph 42% 0 in 135 W/m2
19:43 86.9 °F 58.3 °F 29.8 in Calm   3.8 mph 38% 0 in 124 W/m2
19:48 87.6 °F 58.8 °F 29.8 in West 0.7 mph 2.2 mph 38% 0 in 113 W/m2
19:53 87.3 °F 60.6 °F 29.8 in West 0.7 mph 3.1 mph 41% 0 in 101 W/m2
19:58 86.2 °F 58.5 °F 29.8 in West 0.7 mph 3.1 mph 39% 0 in 88 W/m2
20:03 85.3 °F 54.7 °F 29.8 in NW 3.1 mph 6.9 mph 35% 0 in 75 W/m2
20:08 83.5 °F 51.4 °F 29.8 in NW 9.8 mph 12.1 mph 33% 0 in 60 W/m2
20:13 82.9 °F 50.9 °F 29.8 in NW 4.5 mph 12.1 mph 33% 0 in 45 W/m2
20:18 82.2 °F 48.6 °F 29.8 in NW 4.5 mph 12.1 mph 31% 0 in 22 W/m2
20:23 81.1 °F 48.6 °F 29.8 in WNW 3.8 mph 9.2 mph 32% 0 in 15 W/m2
20:28 80.2 °F 48.6 °F 29.8 in NW 2.2 mph 6.9 mph 33% 0 in 12 W/m2
20:33 79.5 °F 48.7 °F 29.8 in NW 3.1 mph 6 mph 34% 0 in 8 W/m2
20:38 79 °F 49.8 °F 29.8 in NW 1.6 mph 4.5 mph 36% 0 in 5 W/m2
20:43 78.6 °F 50.9 °F 29.8 in NW 2.2 mph 4.5 mph 38% 0 in 2 W/m2
20:48 78.3 °F 49.8 °F 29.8 in NW 4.5 mph 7.6 mph 37% 0 in 0 W/m2
20:53 78.1 °F 49.6 °F 29.8 in NNW 4.5 mph 8.3 mph 37% 0 in 0 W/m2
20:58 77.7 °F 49.5 °F 29.8 in NNW 3.1 mph 8.3 mph 37% 0 in 0 W/m2
21:03 77.4 °F 49.1 °F 29.8 in NNW 2.2 mph 6.9 mph 37% 0 in 0 W/m2
21:08 77 °F 48.7 °F 29.8 in NNW 3.1 mph 6 mph 37% 0 in 0 W/m2
21:13 76.8 °F 49.3 °F 29.8 in NNW 3.1 mph 6 mph 38% 0 in 0 W/m2
21:18 76.6 °F 49.3 °F 29.8 in NNW 3.1 mph 7.6 mph 38% 0 in 0 W/m2
21:23 76.5 °F 48.9 °F 29.8 in NNW 3.1 mph 7.6 mph 38% 0 in 0 W/m2
21:28 76.1 °F 48.7 °F 29.8 in NNW 2.2 mph 7.6 mph 38% 0 in 0 W/m2
21:29 76.1 °F 48.7 °F 29.8 in NNW 3.8 mph 7.6 mph 38% 0 in 0 W/m2
21:35 75.9 °F 48.6 °F 29.8 in NNW 4.5 mph 7.6 mph 38% 0 in 0 W/m2
21:40 76.1 °F 48 °F 29.8 in NW 5.4 mph 10.7 mph 37% 0 in 0 W/m2
21:45 76.1 °F 48 °F 29.8 in NW 5.4 mph 10.7 mph 37% 0 in 0 W/m2
21:50 75.9 °F 47.8 °F 29.8 in NW 5.4 mph 9.8 mph 37% 0 in 0 W/m2
21:55 75.7 °F 47.7 °F 29.8 in NNW 5.4 mph 9.8 mph 37% 0 in 0 W/m2
22:00 75.4 °F 47.3 °F 29.8 in NW 6.9 mph 10.7 mph 37% 0 in 0 W/m2
22:05 75.4 °F 47.3 °F 29.8 in NW 5.4 mph 12.1 mph 37% 0 in 0 W/m2
22:10 75 °F 48.4 °F 29.8 in NNW 3.8 mph 12.1 mph 39% 0 in 0 W/m2
22:15 74.7 °F 48 °F 29.8 in NNW 4.5 mph 9.8 mph 39% 0 in 0 W/m2
22:20 74.5 °F 47.8 °F 29.8 in NNW 3.8 mph 9.8 mph 39% 0 in 0 W/m2
22:25 74.3 °F 47.8 °F 29.8 in NNW 4.5 mph 8.3 mph 39% 0 in 0 W/m2
22:30 74.3 °F 47.8 °F 29.8 in North 9.2 mph 12.1 mph 39% 0 in 0 W/m2
22:35 74.3 °F 47.8 °F 29.8 in NNW 5.4 mph 12.1 mph 39% 0 in 0 W/m2
22:40 74.1 °F 47.7 °F 29.8 in NW 5.4 mph 12.1 mph 39% 0 in 0 W/m2
22:45 73.8 °F 47.3 °F 29.8 in NNW 5.4 mph 9.2 mph 39% 0 in 0 W/m2
22:50 73.8 °F 47.3 °F 29.8 in NNW 4.5 mph 10.7 mph 39% 0 in 0 W/m2
22:55 73.6 °F 47.1 °F 29.8 in NNW 6 mph 10.7 mph 39% 0 in 0 W/m2
23:00 73.4 °F 47.7 °F 29.8 in NW 6 mph 10.7 mph 40% 0 in 0 W/m2
23:05 73.2 °F 47.5 °F 29.8 in NW 6 mph 11.4 mph 40% 0 in 0 W/m2
23:10 73 °F 47.3 °F 29.8 in NNW 6 mph 11.4 mph 40% 0 in 0 W/m2
23:15 72.9 °F 47.1 °F 29.8 in NNW 4.5 mph 11.4 mph 40% 0 in 0 W/m2
23:20 72.7 °F 47.7 °F 29.8 in NNW 7.6 mph 13 mph 41% 0 in 0 W/m2
23:25 72.3 °F 47.3 °F 29.8 in NNW 5.4 mph 13 mph 41% 0 in 0 W/m2
23:30 72 °F 46.9 °F 29.8 in NNW 6 mph 10.7 mph 41% 0 in 0 W/m2
23:35 71.8 °F 46.8 °F 29.8 in NNW 6.9 mph 11.4 mph 41% 0 in 0 W/m2
23:40 72 °F 46.9 °F 29.8 in NNW 5.4 mph 14.5 mph 41% 0 in 0 W/m2
23:45 71.8 °F 47.5 °F 29.8 in NNW 6.9 mph 14.5 mph 42% 0 in 0 W/m2
23:50 71.8 °F 47.5 °F 29.8 in NW 6.9 mph 13 mph 42% 0 in 0 W/m2
23:56 71.6 °F 47.3 °F 29.8 in NW 6.9 mph 14.5 mph 42% 0 in 0 W/m2
Northern Hawkes Bay. New Zealand Historic Data
Compliments of Weather Underground - 2 mb